sensor_id;sensor_type;location;lat;lon;timestamp;pressure;altitude;pressure_sealevel;temperature;humidity
53340;BME280;46212;50.258;19.062;2023-03-23T00:00:47;98048.06;;;10.35;74.93
53340;BME280;46212;50.258;19.062;2023-03-23T00:03:12;98049.31;;;10.34;75.29
53340;BME280;46212;50.258;19.062;2023-03-23T00:05:39;98042.22;;;10.42;74.90
53340;BME280;46212;50.258;19.062;2023-03-23T00:08:07;98040.84;;;10.37;74.37
53340;BME280;46212;50.258;19.062;2023-03-23T00:10:35;98045.97;;;10.30;74.53
53340;BME280;46212;50.258;19.062;2023-03-23T00:13:00;98048.31;;;10.13;74.86
53340;BME280;46212;50.258;19.062;2023-03-23T00:15:30;98046.47;;;10.19;74.59
53340;BME280;46212;50.258;19.062;2023-03-23T00:18:01;98039.84;;;10.26;74.50
53340;BME280;46212;50.258;19.062;2023-03-23T00:20:30;98044.47;;;10.10;74.67
53340;BME280;46212;50.258;19.062;2023-03-23T00:23:05;98042.00;;;10.12;74.99
53340;BME280;46212;50.258;19.062;2023-03-23T00:25:31;98040.97;;;10.10;75.13
53340;BME280;46212;50.258;19.062;2023-03-23T00:27:57;98039.94;;;9.98;75.11
53340;BME280;46212;50.258;19.062;2023-03-23T00:30:22;98040.72;;;9.90;75.58
53340;BME280;46212;50.258;19.062;2023-03-23T00:32:48;98036.47;;;9.80;75.95
53340;BME280;46212;50.258;19.062;2023-03-23T00:35:13;98035.38;;;9.77;75.97
53340;BME280;46212;50.258;19.062;2023-03-23T00:37:39;98048.59;;;9.73;76.93
53340;BME280;46212;50.258;19.062;2023-03-23T00:40:05;98038.19;;;9.68;76.94
53340;BME280;46212;50.258;19.062;2023-03-23T00:42:34;98037.91;;;9.57;77.25
53340;BME280;46212;50.258;19.062;2023-03-23T00:45:03;98033.91;;;9.58;77.43
53340;BME280;46212;50.258;19.062;2023-03-23T00:47:38;98037.91;;;9.57;77.66
53340;BME280;46212;50.258;19.062;2023-03-23T00:50:04;98037.91;;;9.57;77.58
53340;BME280;46212;50.258;19.062;2023-03-23T00:52:30;98037.75;;;9.51;77.74
53340;BME280;46212;50.258;19.062;2023-03-23T00:54:56;98032.56;;;9.44;77.99
53340;BME280;46212;50.258;19.062;2023-03-23T00:57:22;98031.47;;;9.42;78.00
53340;BME280;46212;50.258;19.062;2023-03-23T00:59:50;98024.91;;;9.39;78.11
53340;BME280;46212;50.258;19.062;2023-03-23T01:02:15;98028.13;;;9.38;78.44
53340;BME280;46212;50.258;19.062;2023-03-23T01:04:42;98025.53;;;9.34;78.60
53340;BME280;46212;50.258;19.062;2023-03-23T01:07:10;98020.94;;;9.40;78.46
53340;BME280;46212;50.258;19.062;2023-03-23T01:09:38;98025.06;;;9.36;78.76
53340;BME280;46212;50.258;19.062;2023-03-23T01:12:05;98020.63;;;9.29;78.76
53340;BME280;46212;50.258;19.062;2023-03-23T01:14:31;98019.28;;;9.25;79.02
53340;BME280;46212;50.258;19.062;2023-03-23T01:16:56;98016.81;;;9.27;78.86
53340;BME280;46212;50.258;19.062;2023-03-23T01:19:22;98016.81;;;9.18;79.38
53340;BME280;46212;50.258;19.062;2023-03-23T01:21:47;98017.13;;;9.20;79.76
53340;BME280;46212;50.258;19.062;2023-03-23T01:24:13;98016.38;;;9.01;80.36
53340;BME280;46212;50.258;19.062;2023-03-23T01:26:38;98010.84;;;9.10;80.21
53340;BME280;46212;50.258;19.062;2023-03-23T01:29:04;98015.63;;;9.10;80.25
53340;BME280;46212;50.258;19.062;2023-03-23T01:31:29;98015.00;;;9.05;80.53
53340;BME280;46212;50.258;19.062;2023-03-23T01:33:55;98018.53;;;9.06;80.63
53340;BME280;46212;50.258;19.062;2023-03-23T01:36:26;98015.28;;;9.17;80.46
53340;BME280;46212;50.258;19.062;2023-03-23T01:38:54;98020.97;;;9.22;80.03
53340;BME280;46212;50.258;19.062;2023-03-23T01:41:20;98011.94;;;9.22;79.69
53340;BME280;46212;50.258;19.062;2023-03-23T01:44:00;98012.53;;;9.26;79.80
53340;BME280;46212;50.258;19.062;2023-03-23T01:46:28;98009.94;;;9.31;79.41
53340;BME280;46212;50.258;19.062;2023-03-23T01:48:55;98006.53;;;9.45;78.96
53340;BME280;46212;50.258;19.062;2023-03-23T01:51:23;98002.69;;;9.43;78.79
53340;BME280;46212;50.258;19.062;2023-03-23T01:53:56;98011.75;;;9.43;78.51
53340;BME280;46212;50.258;19.062;2023-03-23T01:56:26;98007.16;;;9.40;79.09
53340;BME280;46212;50.258;19.062;2023-03-23T01:58:55;98002.56;;;9.37;79.17
53340;BME280;46212;50.258;19.062;2023-03-23T02:01:22;97997.66;;;9.41;78.88
53340;BME280;46212;50.258;19.062;2023-03-23T02:03:51;98000.25;;;9.36;79.21
53340;BME280;46212;50.258;19.062;2023-03-23T02:06:17;97996.91;;;9.41;79.07
53340;BME280;46212;50.258;19.062;2023-03-23T02:08:44;97989.66;;;9.52;78.79
53340;BME280;46212;50.258;19.062;2023-03-23T02:11:15;97983.97;;;9.65;77.80
53340;BME280;46212;50.258;19.062;2023-03-23T02:13:42;97987.63;;;9.71;77.58
53340;BME280;46212;50.258;19.062;2023-03-23T02:16:15;97984.28;;;9.58;78.02
53340;BME280;46212;50.258;19.062;2023-03-23T02:32:16;97978.25;;;9.78;77.09
53340;BME280;46212;50.258;19.062;2023-03-23T02:34:49;97969.81;;;9.81;77.07
53340;BME280;46212;50.258;19.062;2023-03-23T02:37:27;97981.13;;;9.83;76.91
53340;BME280;46212;50.258;19.062;2023-03-23T02:42:38;97984.38;;;9.82;77.05
53340;BME280;46212;50.258;19.062;2023-03-23T02:45:07;97970.09;;;9.83;76.78
53340;BME280;46212;50.258;19.062;2023-03-23T02:47:35;97964.09;;;9.94;75.92
53340;BME280;46212;50.258;19.062;2023-03-23T02:50:03;97959.50;;;9.91;76.19
53340;BME280;46212;50.258;19.062;2023-03-23T02:52:32;97966.56;;;9.92;76.12
53340;BME280;46212;50.258;19.062;2023-03-23T02:55:00;97959.25;;;9.80;76.67
53340;BME280;46212;50.258;19.062;2023-03-23T02:57:26;97968.44;;;9.86;76.68
53340;BME280;46212;50.258;19.062;2023-03-23T02:59:53;97968.06;;;10.02;76.34
53340;BME280;46212;50.258;19.062;2023-03-23T03:02:22;97972.25;;;9.88;76.26
53340;BME280;46212;50.258;19.062;2023-03-23T03:04:58;97968.56;;;9.91;76.01
53340;BME280;46212;50.258;19.062;2023-03-23T03:07:50;97964.38;;;9.96;75.92
53340;BME280;46212;50.258;19.062;2023-03-23T03:13:22;97951.84;;;9.95;75.48
53340;BME280;46212;50.258;19.062;2023-03-23T03:18:32;97949.78;;;10.13;75.00
53340;BME280;46212;50.258;19.062;2023-03-23T03:21:06;97947.97;;;10.01;75.56
53340;BME280;46212;50.258;19.062;2023-03-23T03:23:34;97947.09;;;9.86;76.06
53340;BME280;46212;50.258;19.062;2023-03-23T03:26:03;97951.84;;;9.95;75.42
53340;BME280;46212;50.258;19.062;2023-03-23T03:28:32;97944.56;;;10.06;74.98
53340;BME280;46212;50.258;19.062;2023-03-23T03:30:59;97945.31;;;10.16;74.14
53340;BME280;46212;50.258;19.062;2023-03-23T03:33:28;97945.03;;;10.14;74.39
53340;BME280;46212;50.258;19.062;2023-03-23T03:35:57;97945.59;;;10.18;73.95
53340;BME280;46212;50.258;19.062;2023-03-23T03:38:25;97948.09;;;10.40;73.03
53340;BME280;46212;50.258;19.062;2023-03-23T03:40:50;97942.66;;;10.45;72.90
53340;BME280;46212;50.258;19.062;2023-03-23T03:43:16;97943.63;;;10.42;72.68
53340;BME280;46212;50.258;19.062;2023-03-23T03:45:42;97943.25;;;10.49;72.24
53340;BME280;46212;50.258;19.062;2023-03-23T03:48:08;97925.75;;;10.52;72.16
53340;BME280;46212;50.258;19.062;2023-03-23T03:50:33;97935.19;;;10.60;71.78
53340;BME280;46212;50.258;19.062;2023-03-23T03:52:59;97941.06;;;10.53;71.86
53340;BME280;46212;50.258;19.062;2023-03-23T03:55:24;97949.19;;;10.57;71.99
53340;BME280;46212;50.258;19.062;2023-03-23T03:57:50;97949.00;;;10.60;71.49
53340;BME280;46212;50.258;19.062;2023-03-23T04:00:16;97959.00;;;10.58;71.53
53340;BME280;46212;50.258;19.062;2023-03-23T04:02:46;97960.16;;;10.66;71.04
53340;BME280;46212;50.258;19.062;2023-03-23T04:05:20;97953.13;;;10.65;71.26
53340;BME280;46212;50.258;19.062;2023-03-23T04:07:45;97954.34;;;10.64;71.18
53340;BME280;46212;50.258;19.062;2023-03-23T04:10:14;97949.41;;;10.68;71.06
53340;BME280;46212;50.258;19.062;2023-03-23T04:12:39;97954.53;;;10.60;71.07
53340;BME280;46212;50.258;19.062;2023-03-23T04:15:06;97951.00;;;10.60;71.25
53340;BME280;46212;50.258;19.062;2023-03-23T04:17:33;97947.41;;;10.69;70.91
53340;BME280;46212;50.258;19.062;2023-03-23T04:19:59;97943.88;;;10.68;70.83
53340;BME280;46212;50.258;19.062;2023-03-23T04:22:25;97940.03;;;10.65;70.87
53340;BME280;46212;50.258;19.062;2023-03-23T04:24:56;97943.13;;;10.68;70.48
53340;BME280;46212;50.258;19.062;2023-03-23T04:27:24;97942.53;;;10.63;70.91
53340;BME280;46212;50.258;19.062;2023-03-23T04:29:50;97956.34;;;10.63;70.69
53340;BME280;46212;50.258;19.062;2023-03-23T04:32:15;97939.88;;;10.69;70.36
53340;BME280;46212;50.258;19.062;2023-03-23T04:34:43;97935.97;;;10.61;70.56
53340;BME280;46212;50.258;19.062;2023-03-23T04:37:09;97939.06;;;10.54;70.97
53340;BME280;46212;50.258;19.062;2023-03-23T04:39:35;97931.72;;;10.51;71.07
53340;BME280;46212;50.258;19.062;2023-03-23T04:42:00;97927.97;;;10.63;70.13
53340;BME280;46212;50.258;19.062;2023-03-23T04:44:27;97942.31;;;10.52;70.75
53340;BME280;46212;50.258;19.062;2023-03-23T04:46:52;97945.81;;;10.53;70.83
53340;BME280;46212;50.258;19.062;2023-03-23T04:49:19;97942.00;;;10.50;70.98
53340;BME280;46212;50.258;19.062;2023-03-23T04:51:48;97940.25;;;10.62;70.42
53340;BME280;46212;50.258;19.062;2023-03-23T04:54:15;97933.09;;;10.55;70.51
53340;BME280;46212;50.258;19.062;2023-03-23T04:56:41;97941.94;;;10.59;70.52
53340;BME280;46212;50.258;19.062;2023-03-23T04:59:07;97949.66;;;10.55;70.63
53340;BME280;46212;50.258;19.062;2023-03-23T05:01:32;97945.88;;;10.44;71.04
53340;BME280;46212;50.258;19.062;2023-03-23T05:03:59;97960.09;;;10.51;70.96
53340;BME280;46212;50.258;19.062;2023-03-23T05:06:25;97954.09;;;10.53;70.90
53340;BME280;46212;50.258;19.062;2023-03-23T05:08:51;97954.66;;;10.42;71.29
53340;BME280;46212;50.258;19.062;2023-03-23T05:11:16;97952.78;;;10.48;71.21
53340;BME280;46212;50.258;19.062;2023-03-23T05:13:42;97949.66;;;10.55;70.79
53340;BME280;46212;50.258;19.062;2023-03-23T05:16:09;97948.41;;;10.56;70.94
53340;BME280;46212;50.258;19.062;2023-03-23T05:18:35;97950.88;;;10.54;70.73
53340;BME280;46212;50.258;19.062;2023-03-23T05:21:02;97938.44;;;10.59;70.89
53340;BME280;46212;50.258;19.062;2023-03-23T05:23:28;97950.81;;;10.63;70.58
53340;BME280;46212;50.258;19.062;2023-03-23T05:25:57;97945.69;;;10.71;70.08
53340;BME280;46212;50.258;19.062;2023-03-23T05:28:27;97943.72;;;10.72;69.99
53340;BME280;46212;50.258;19.062;2023-03-23T05:30:53;97943.63;;;10.81;69.76
53340;BME280;46212;50.258;19.062;2023-03-23T05:33:21;97954.78;;;10.86;69.52
53340;BME280;46212;50.258;19.062;2023-03-23T05:35:47;97948.41;;;10.95;69.18
53340;BME280;46212;50.258;19.062;2023-03-23T05:38:13;97950.53;;;11.00;69.22
53340;BME280;46212;50.258;19.062;2023-03-23T05:40:40;97952.72;;;11.10;68.40
53340;BME280;46212;50.258;19.062;2023-03-23T05:43:06;97956.06;;;11.14;68.54
53340;BME280;46212;50.258;19.062;2023-03-23T05:45:33;97939.75;;;11.16;68.26
53340;BME280;46212;50.258;19.062;2023-03-23T05:47:59;97947.97;;;11.26;68.09
53340;BME280;46212;50.258;19.062;2023-03-23T05:50:25;97943.66;;;11.39;67.56
53340;BME280;46212;50.258;19.062;2023-03-23T05:52:50;97943.03;;;11.44;67.13
53340;BME280;46212;50.258;19.062;2023-03-23T05:55:16;97952.44;;;11.52;66.77
53340;BME280;46212;50.258;19.062;2023-03-23T05:57:42;97948.72;;;11.55;66.60
53340;BME280;46212;50.258;19.062;2023-03-23T06:00:08;97943.75;;;11.59;66.58
53340;BME280;46212;50.258;19.062;2023-03-23T06:02:40;97951.78;;;11.72;66.24
53340;BME280;46212;50.258;19.062;2023-03-23T06:05:10;97958.94;;;11.79;65.56
53340;BME280;46212;50.258;19.062;2023-03-23T06:07:35;97954.72;;;11.83;65.51
53340;BME280;46212;50.258;19.062;2023-03-23T06:10:03;97950.53;;;11.88;65.39
53340;BME280;46212;50.258;19.062;2023-03-23T06:12:29;97954.69;;;11.98;65.36
53340;BME280;46212;50.258;19.062;2023-03-23T06:14:54;97952.97;;;12.00;65.18
53340;BME280;46212;50.258;19.062;2023-03-23T06:17:20;97952.78;;;12.04;64.73
53340;BME280;46212;50.258;19.062;2023-03-23T06:19:45;97946.84;;;12.11;65.09
53340;BME280;46212;50.258;19.062;2023-03-23T06:22:12;97933.75;;;12.11;64.45
53340;BME280;46212;50.258;19.062;2023-03-23T06:24:38;97944.16;;;12.16;64.28
53340;BME280;46212;50.258;19.062;2023-03-23T06:27:03;97943.88;;;12.14;64.54
53340;BME280;46212;50.258;19.062;2023-03-23T06:29:29;97948.78;;;12.25;63.60
53340;BME280;46212;50.258;19.062;2023-03-23T06:31:58;97947.88;;;12.34;63.49
53340;BME280;46212;50.258;19.062;2023-03-23T06:34:24;97953.16;;;12.32;63.67
53340;BME280;46212;50.258;19.062;2023-03-23T06:36:50;97955.94;;;12.32;63.58
53340;BME280;46212;50.258;19.062;2023-03-23T06:39:15;97947.22;;;12.39;63.47
53340;BME280;46212;50.258;19.062;2023-03-23T06:41:41;97949.41;;;12.35;63.27
53340;BME280;46212;50.258;19.062;2023-03-23T06:44:07;97953.84;;;12.47;63.13
53340;BME280;46212;50.258;19.062;2023-03-23T06:46:33;97960.03;;;12.56;62.45
53340;BME280;46212;50.258;19.062;2023-03-23T06:48:59;97953.31;;;12.63;62.41
53340;BME280;46212;50.258;19.062;2023-03-23T06:51:25;97955.41;;;12.68;62.05
53340;BME280;46212;50.258;19.062;2023-03-23T06:53:50;97954.44;;;12.71;62.03
53340;BME280;46212;50.258;19.062;2023-03-23T06:56:16;97966.81;;;12.75;61.81
53340;BME280;46212;50.258;19.062;2023-03-23T06:58:42;97962.84;;;12.82;61.56
53340;BME280;46212;50.258;19.062;2023-03-23T07:01:08;97962.84;;;12.82;61.58
53340;BME280;46212;50.258;19.062;2023-03-23T07:03:34;97954.84;;;12.84;61.55
53340;BME280;46212;50.258;19.062;2023-03-23T07:06:00;97952.28;;;12.81;61.86
53340;BME280;46212;50.258;19.062;2023-03-23T07:08:26;97964.94;;;12.87;61.85
53340;BME280;46212;50.258;19.062;2023-03-23T07:10:52;97964.72;;;12.91;61.45
53340;BME280;46212;50.258;19.062;2023-03-23T07:13:19;97963.75;;;12.94;61.26
53340;BME280;46212;50.258;19.062;2023-03-23T07:15:45;97948.63;;;12.95;61.19
53340;BME280;46212;50.258;19.062;2023-03-23T07:18:11;97952.72;;;12.99;61.24
53340;BME280;46212;50.258;19.062;2023-03-23T07:20:37;97959.31;;;13.02;60.60
53340;BME280;46212;50.258;19.062;2023-03-23T07:23:02;97973.97;;;13.08;60.82
53340;BME280;46212;50.258;19.062;2023-03-23T07:25:30;97959.94;;;13.11;60.53
53340;BME280;46212;50.258;19.062;2023-03-23T07:27:56;97957.00;;;13.20;60.10
53340;BME280;46212;50.258;19.062;2023-03-23T07:30:22;97974.19;;;13.24;59.92
53340;BME280;46212;50.258;19.062;2023-03-23T07:32:47;97968.22;;;13.32;59.36
53340;BME280;46212;50.258;19.062;2023-03-23T07:35:13;97963.19;;;13.36;59.32
53340;BME280;46212;50.258;19.062;2023-03-23T07:37:38;97962.22;;;13.39;59.33
53340;BME280;46212;50.258;19.062;2023-03-23T07:40:04;97967.13;;;13.49;59.74
53340;BME280;46212;50.258;19.062;2023-03-23T07:42:33;97980.25;;;13.54;59.13
53340;BME280;46212;50.258;19.062;2023-03-23T07:44:59;97979.28;;;13.57;58.53
53340;BME280;46212;50.258;19.062;2023-03-23T07:47:24;97985.16;;;13.65;58.70
53340;BME280;46212;50.258;19.062;2023-03-23T07:49:50;97975.84;;;13.68;58.51
53340;BME280;46212;50.258;19.062;2023-03-23T07:52:15;97986.94;;;13.68;58.57
53340;BME280;46212;50.258;19.062;2023-03-23T07:54:40;97982.59;;;13.61;58.62
53340;BME280;46212;50.258;19.062;2023-03-23T07:57:06;97977.28;;;13.58;58.97
53340;BME280;46212;50.258;19.062;2023-03-23T07:59:32;97977.81;;;13.62;59.07
53340;BME280;46212;50.258;19.062;2023-03-23T08:01:57;97973.84;;;13.68;58.51
53340;BME280;46212;50.258;19.062;2023-03-23T08:04:23;97966.53;;;13.71;58.45
53340;BME280;46212;50.258;19.062;2023-03-23T08:06:49;97968.06;;;13.72;58.18
53340;BME280;46212;50.258;19.062;2023-03-23T08:09:14;97973.63;;;13.72;58.48
53340;BME280;46212;50.258;19.062;2023-03-23T08:11:41;97972.38;;;13.73;58.17
53340;BME280;46212;50.258;19.062;2023-03-23T08:14:06;97964.50;;;13.66;58.83
53340;BME280;46212;50.258;19.062;2023-03-23T08:16:32;97962.97;;;13.65;58.98
53340;BME280;46212;50.258;19.062;2023-03-23T08:18:58;97965.56;;;13.74;58.63
53340;BME280;46212;50.258;19.062;2023-03-23T08:21:24;97972.91;;;13.77;58.49
53340;BME280;46212;50.258;19.062;2023-03-23T08:23:49;97978.78;;;13.84;58.52
53340;BME280;46212;50.258;19.062;2023-03-23T08:26:15;97970.88;;;14.09;57.77
53340;BME280;46212;50.258;19.062;2023-03-23T08:28:42;97960.34;;;14.24;57.32
53340;BME280;46212;50.258;19.062;2023-03-23T08:31:14;97958.78;;;14.49;56.42
53340;BME280;46212;50.258;19.062;2023-03-23T08:33:40;97960.09;;;14.64;55.94
53340;BME280;46212;50.258;19.062;2023-03-23T08:36:06;97960.44;;;14.83;55.41
53340;BME280;46212;50.258;19.062;2023-03-23T08:38:33;97950.88;;;15.01;55.21
53340;BME280;46212;50.258;19.062;2023-03-23T08:41:03;97966.84;;;15.11;54.44
53340;BME280;46212;50.258;19.062;2023-03-23T08:43:30;97956.47;;;15.06;53.75
53340;BME280;46212;50.258;19.062;2023-03-23T08:45:57;97959.50;;;15.19;53.79
53340;BME280;46212;50.258;19.062;2023-03-23T08:48:22;97961.81;;;15.32;53.74
53340;BME280;46212;50.258;19.062;2023-03-23T08:50:48;97954.50;;;15.46;53.04
53340;BME280;46212;50.258;19.062;2023-03-23T08:53:15;97958.06;;;15.57;52.54
53340;BME280;46212;50.258;19.062;2023-03-23T08:55:41;97954.81;;;15.75;52.27
53340;BME280;46212;50.258;19.062;2023-03-23T08:58:08;97956.81;;;15.86;51.47
53340;BME280;46212;50.258;19.062;2023-03-23T09:00:34;97958.84;;;15.97;51.28
53340;BME280;46212;50.258;19.062;2023-03-23T09:03:00;97953.28;;;15.97;51.55
53340;BME280;46212;50.258;19.062;2023-03-23T09:05:26;97957.81;;;16.00;51.32
53340;BME280;46212;50.258;19.062;2023-03-23T09:07:56;97953.00;;;16.06;51.10
53340;BME280;46212;50.258;19.062;2023-03-23T09:10:24;97960.59;;;16.05;50.47
53340;BME280;46212;50.258;19.062;2023-03-23T09:12:51;97956.53;;;16.17;50.50
53340;BME280;46212;50.258;19.062;2023-03-23T09:15:17;97952.19;;;16.27;50.47
53340;BME280;46212;50.258;19.062;2023-03-23T09:17:46;97955.22;;;16.40;49.32
53340;BME280;46212;50.258;19.062;2023-03-23T09:20:14;97950.41;;;16.58;48.92
53340;BME280;46212;50.258;19.062;2023-03-23T09:22:43;97952.09;;;16.72;48.23
53340;BME280;46212;50.258;19.062;2023-03-23T09:25:11;97943.94;;;16.85;48.66
53340;BME280;46212;50.258;19.062;2023-03-23T09:27:37;97951.84;;;16.75;47.91
53340;BME280;46212;50.258;19.062;2023-03-23T09:30:10;97948.03;;;16.78;48.05
53340;BME280;46212;50.258;19.062;2023-03-23T09:32:37;97947.72;;;16.87;48.18
53340;BME280;46212;50.258;19.062;2023-03-23T09:35:05;97958.88;;;16.93;47.59
53340;BME280;46212;50.258;19.062;2023-03-23T09:37:34;97968.28;;;16.90;47.91
53340;BME280;46212;50.258;19.062;2023-03-23T09:40:02;97947.22;;;16.89;47.82
53340;BME280;46212;50.258;19.062;2023-03-23T09:45:34;97958.63;;;17.32;46.49
53340;BME280;46212;50.258;19.062;2023-03-23T09:48:14;97951.50;;;17.36;46.49
53340;BME280;46212;50.258;19.062;2023-03-23T09:50:46;97969.22;;;17.44;46.13
53340;BME280;46212;50.258;19.062;2023-03-23T09:53:23;97940.72;;;17.57;45.17
53340;BME280;46212;50.258;19.062;2023-03-23T09:55:50;97953.66;;;17.60;45.71
53340;BME280;46212;50.258;19.062;2023-03-23T09:58:26;97949.78;;;17.69;45.05
53340;BME280;46212;50.258;19.062;2023-03-23T10:00:56;97943.22;;;17.66;44.54
53340;BME280;46212;50.258;19.062;2023-03-23T10:03:27;97927.91;;;17.73;44.55
53340;BME280;46212;50.258;19.062;2023-03-23T10:05:56;97932.94;;;17.80;45.07
53340;BME280;46212;50.258;19.062;2023-03-23T10:08:22;97935.06;;;17.68;44.71
53340;BME280;46212;50.258;19.062;2023-03-23T10:17:00;97927.41;;;17.74;44.40
53340;BME280;46212;50.258;19.062;2023-03-23T10:19:47;97924.28;;;17.83;42.53
53340;BME280;46212;50.258;19.062;2023-03-23T10:22:19;97919.09;;;17.93;42.40
53340;BME280;46212;50.258;19.062;2023-03-23T10:24:57;97943.91;;;18.02;41.19
53340;BME280;46212;50.258;19.062;2023-03-23T10:27:33;97883.38;;;18.10;40.59
53340;BME280;46212;50.258;19.062;2023-03-23T10:35:59;97912.56;;;19.00;38.21
53340;BME280;46212;50.258;19.062;2023-03-23T10:38:34;97911.66;;;18.92;37.84
53340;BME280;46212;50.258;19.062;2023-03-23T10:41:05;97894.38;;;18.51;38.60
53340;BME280;46212;50.258;19.062;2023-03-23T10:43:34;97905.66;;;18.40;38.90
53340;BME280;46212;50.258;19.062;2023-03-23T10:46:03;97903.75;;;18.29;38.67
53340;BME280;46212;50.258;19.062;2023-03-23T10:48:36;97891.06;;;18.28;39.56
53340;BME280;46212;50.258;19.062;2023-03-23T10:51:05;97905.19;;;18.12;39.64
53340;BME280;46212;50.258;19.062;2023-03-23T10:53:37;97908.00;;;18.12;40.01
53340;BME280;46212;50.258;19.062;2023-03-23T10:56:04;97918.41;;;18.11;39.88
53340;BME280;46212;50.258;19.062;2023-03-23T10:58:32;97922.44;;;17.91;40.30
53340;BME280;46212;50.258;19.062;2023-03-23T11:01:00;97912.16;;;17.75;40.87
53340;BME280;46212;50.258;19.062;2023-03-23T11:03:38;97923.63;;;17.72;41.80
53340;BME280;46212;50.258;19.062;2023-03-23T11:06:09;97913.25;;;17.67;41.88
53340;BME280;46212;50.258;19.062;2023-03-23T11:08:46;97920.34;;;17.68;41.58
53340;BME280;46212;50.258;19.062;2023-03-23T11:11:28;97909.47;;;17.64;41.52
53340;BME280;46212;50.258;19.062;2023-03-23T11:14:13;97928.81;;;17.57;42.33
53340;BME280;46212;50.258;19.062;2023-03-23T11:16:49;97917.97;;;17.42;42.54
53340;BME280;46212;50.258;19.062;2023-03-23T11:19:22;97940.84;;;17.40;42.36
53340;BME280;46212;50.258;19.062;2023-03-23T11:21:51;97926.72;;;17.27;43.18
53340;BME280;46212;50.258;19.062;2023-03-23T11:24:17;97945.75;;;17.23;43.20
53340;BME280;46212;50.258;19.062;2023-03-23T11:26:44;97912.81;;;17.22;43.48
53340;BME280;46212;50.258;19.062;2023-03-23T11:29:17;97923.66;;;17.25;43.35
53340;BME280;46212;50.258;19.062;2023-03-23T11:32:04;97920.44;;;17.16;43.07
53340;BME280;46212;50.258;19.062;2023-03-23T11:34:37;97923.81;;;17.03;43.24
53340;BME280;46212;50.258;19.062;2023-03-23T11:39:59;97924.81;;;17.06;43.20
53340;BME280;46212;50.258;19.062;2023-03-23T11:51:01;97916.13;;;17.15;43.59
53340;BME280;46212;50.258;19.062;2023-03-23T11:58:57;97918.34;;;17.27;43.73
53340;BME280;46212;50.258;19.062;2023-03-23T12:04:32;97910.31;;;17.48;43.20
53340;BME280;46212;50.258;19.062;2023-03-23T12:10:14;97902.41;;;17.58;42.96
53340;BME280;46212;50.258;19.062;2023-03-23T12:13:03;97904.13;;;17.66;43.01
53340;BME280;46212;50.258;19.062;2023-03-23T12:15:38;97909.41;;;17.70;43.01
53340;BME280;46212;50.258;19.062;2023-03-23T12:23:24;97896.75;;;17.69;42.76
53340;BME280;46212;50.258;19.062;2023-03-23T12:37:35;97895.72;;;17.96;42.41
53340;BME280;46212;50.258;19.062;2023-03-23T12:43:03;97898.38;;;17.83;43.05
53340;BME280;46212;50.258;19.062;2023-03-23T12:48:01;97904.06;;;17.72;43.18
53340;BME280;46212;50.258;19.062;2023-03-23T12:50:40;97893.13;;;17.74;43.27
53340;BME280;46212;50.258;19.062;2023-03-23T12:53:27;97890.88;;;17.72;43.56
53340;BME280;46212;50.258;19.062;2023-03-23T12:58:33;97897.78;;;17.66;43.33
53340;BME280;46212;50.258;19.062;2023-03-23T13:01:11;97912.97;;;17.70;43.24
53340;BME280;46212;50.258;19.062;2023-03-23T13:03:56;97911.47;;;17.69;43.70
53340;BME280;46212;50.258;19.062;2023-03-23T13:06:41;97892.97;;;17.61;43.42
53340;BME280;46212;50.258;19.062;2023-03-23T13:11:49;97892.81;;;17.47;44.10
53340;BME280;46212;50.258;19.062;2023-03-23T13:28:25;97892.53;;;17.57;43.62
53340;BME280;46212;50.258;19.062;2023-03-23T13:33:34;97883.06;;;17.65;43.47
53340;BME280;46212;50.258;19.062;2023-03-23T13:36:13;97884.53;;;17.72;43.34
53340;BME280;46212;50.258;19.062;2023-03-23T13:38:45;97885.94;;;17.84;43.06
53340;BME280;46212;50.258;19.062;2023-03-23T13:41:13;97881.25;;;17.92;43.06
53340;BME280;46212;50.258;19.062;2023-03-23T13:43:41;97865.97;;;17.98;42.76
53340;BME280;46212;50.258;19.062;2023-03-23T13:46:28;97867.19;;;18.03;42.44
53340;BME280;46212;50.258;19.062;2023-03-23T13:59:14;97860.78;;;18.32;41.87
53340;BME280;46212;50.258;19.062;2023-03-23T14:01:41;97864.63;;;18.29;42.17
53340;BME280;46212;50.258;19.062;2023-03-23T14:04:15;97859.38;;;18.20;42.05
53340;BME280;46212;50.258;19.062;2023-03-23T14:06:41;97855.09;;;18.19;41.98
53340;BME280;46212;50.258;19.062;2023-03-23T14:09:25;97847.47;;;18.20;41.60
53340;BME280;46212;50.258;19.062;2023-03-23T14:11:58;97853.56;;;18.18;42.07
53340;BME280;46212;50.258;19.062;2023-03-23T14:14:32;97848.91;;;18.02;42.42
53340;BME280;46212;50.258;19.062;2023-03-23T14:19:38;97850.53;;;18.16;41.92
53340;BME280;46212;50.258;19.062;2023-03-23T14:22:18;97858.75;;;18.09;41.79
53340;BME280;46212;50.258;19.062;2023-03-23T14:24:44;97863.41;;;18.00;42.02
53340;BME280;46212;50.258;19.062;2023-03-23T14:27:12;97869.28;;;17.97;42.55
53340;BME280;46212;50.258;19.062;2023-03-23T14:29:39;97861.72;;;17.92;41.90
53340;BME280;46212;50.258;19.062;2023-03-23T14:32:19;97862.47;;;17.92;42.25
53340;BME280;46212;50.258;19.062;2023-03-23T14:34:52;97856.59;;;17.96;42.45
53340;BME280;46212;50.258;19.062;2023-03-23T14:37:18;97844.44;;;17.93;42.35
53340;BME280;46212;50.258;19.062;2023-03-23T14:39:47;97842.81;;;18.03;41.77
53340;BME280;46212;50.258;19.062;2023-03-23T14:42:16;97843.31;;;18.02;41.93
53340;BME280;46212;50.258;19.062;2023-03-23T14:44:44;97853.44;;;18.05;42.06
53340;BME280;46212;50.258;19.062;2023-03-23T14:47:44;97849.56;;;18.14;41.83
53340;BME280;46212;50.258;19.062;2023-03-23T14:50:37;97850.47;;;18.22;41.11
53340;BME280;46212;50.258;19.062;2023-03-23T14:55:35;97842.28;;;18.05;41.31
53340;BME280;46212;50.258;19.062;2023-03-23T14:58:08;97846.81;;;18.08;41.86
53340;BME280;46212;50.258;19.062;2023-03-23T15:00:49;97844.03;;;18.08;41.23